sensor_id;sensor_type;location;lat;lon;timestamp;P1;durP1;ratioP1;P2;durP2;ratioP2
65863;SDS011;52639;51.180;20.460;2023-11-21T00:03:37;66.63;;;19.58;;
65863;SDS011;52639;51.180;20.460;2023-11-21T00:07:41;97.72;;;21.42;;
65863;SDS011;52639;51.180;20.460;2023-11-21T00:11:45;310.70;;;25.85;;
65863;SDS011;52639;51.180;20.460;2023-11-21T00:15:48;38.70;;;13.65;;
65863;SDS011;52639;51.180;20.460;2023-11-21T00:19:52;33.30;;;10.98;;
65863;SDS011;52639;51.180;20.460;2023-11-21T00:23:55;38.28;;;10.23;;
65863;SDS011;52639;51.180;20.460;2023-11-21T00:27:58;48.95;;;9.93;;
65863;SDS011;52639;51.180;20.460;2023-11-21T00:32:02;59.00;;;11.38;;
65863;SDS011;52639;51.180;20.460;2023-11-21T00:36:08;49.22;;;11.05;;
65863;SDS011;52639;51.180;20.460;2023-11-21T00:40:12;43.25;;;11.43;;
65863;SDS011;52639;51.180;20.460;2023-11-21T00:44:16;35.47;;;10.77;;
65863;SDS011;52639;51.180;20.460;2023-11-21T00:48:19;32.60;;;10.23;;
65863;SDS011;52639;51.180;20.460;2023-11-21T00:52:23;35.67;;;12.55;;
65863;SDS011;52639;51.180;20.460;2023-11-21T00:56:26;29.40;;;12.65;;
65863;SDS011;52639;51.180;20.460;2023-11-21T01:00:29;34.45;;;14.32;;
65863;SDS011;52639;51.180;20.460;2023-11-21T01:04:32;32.03;;;14.68;;
65863;SDS011;52639;51.180;20.460;2023-11-21T01:08:36;41.83;;;18.15;;
65863;SDS011;52639;51.180;20.460;2023-11-21T01:12:39;43.40;;;17.25;;
65863;SDS011;52639;51.180;20.460;2023-11-21T01:16:42;34.50;;;15.55;;
65863;SDS011;52639;51.180;20.460;2023-11-21T01:20:45;44.95;;;18.85;;
65863;SDS011;52639;51.180;20.460;2023-11-21T01:24:50;38.42;;;17.58;;
65863;SDS011;52639;51.180;20.460;2023-11-21T01:28:53;42.97;;;17.52;;
65863;SDS011;52639;51.180;20.460;2023-11-21T01:32:56;35.63;;;18.23;;
65863;SDS011;52639;51.180;20.460;2023-11-21T01:36:59;60.33;;;28.80;;
65863;SDS011;52639;51.180;20.460;2023-11-21T01:41:04;60.30;;;27.83;;
65863;SDS011;52639;51.180;20.460;2023-11-21T01:45:07;43.58;;;19.42;;
65863;SDS011;52639;51.180;20.460;2023-11-21T01:49:13;34.70;;;15.95;;
65863;SDS011;52639;51.180;20.460;2023-11-21T01:53:16;37.63;;;17.15;;
65863;SDS011;52639;51.180;20.460;2023-11-21T01:57:21;42.42;;;18.63;;
65863;SDS011;52639;51.180;20.460;2023-11-21T02:01:24;54.20;;;18.42;;
65863;SDS011;52639;51.180;20.460;2023-11-21T02:05:27;45.03;;;16.85;;
65863;SDS011;52639;51.180;20.460;2023-11-21T02:09:30;44.47;;;18.75;;
65863;SDS011;52639;51.180;20.460;2023-11-21T02:13:35;40.13;;;15.73;;
65863;SDS011;52639;51.180;20.460;2023-11-21T02:17:38;45.30;;;19.50;;
65863;SDS011;52639;51.180;20.460;2023-11-21T02:21:41;44.35;;;18.67;;
65863;SDS011;52639;51.180;20.460;2023-11-21T02:25:47;44.45;;;16.88;;
65863;SDS011;52639;51.180;20.460;2023-11-21T02:29:50;49.10;;;19.00;;
65863;SDS011;52639;51.180;20.460;2023-11-21T02:33:53;44.25;;;18.88;;
65863;SDS011;52639;51.180;20.460;2023-11-21T02:37:56;50.38;;;23.05;;
65863;SDS011;52639;51.180;20.460;2023-11-21T02:42:00;63.05;;;24.73;;
65863;SDS011;52639;51.180;20.460;2023-11-21T02:46:03;49.08;;;21.10;;
65863;SDS011;52639;51.180;20.460;2023-11-21T02:50:06;56.08;;;21.42;;
65863;SDS011;52639;51.180;20.460;2023-11-21T02:54:09;40.55;;;17.67;;
65863;SDS011;52639;51.180;20.460;2023-11-21T02:58:15;44.40;;;19.90;;
65863;SDS011;52639;51.180;20.460;2023-11-21T03:02:18;42.70;;;18.85;;
65863;SDS011;52639;51.180;20.460;2023-11-21T03:06:20;34.53;;;16.00;;
65863;SDS011;52639;51.180;20.460;2023-11-21T03:10:24;35.80;;;15.38;;
65863;SDS011;52639;51.180;20.460;2023-11-21T03:14:29;39.17;;;18.45;;
65863;SDS011;52639;51.180;20.460;2023-11-21T03:18:32;36.97;;;16.13;;
65863;SDS011;52639;51.180;20.460;2023-11-21T03:22:35;35.28;;;15.02;;
65863;SDS011;52639;51.180;20.460;2023-11-21T03:26:38;28.45;;;12.27;;
65863;SDS011;52639;51.180;20.460;2023-11-21T03:30:42;32.47;;;13.93;;
65863;SDS011;52639;51.180;20.460;2023-11-21T03:34:54;35.65;;;13.73;;
65863;SDS011;52639;51.180;20.460;2023-11-21T03:38:58;30.65;;;13.77;;
65863;SDS011;52639;51.180;20.460;2023-11-21T03:43:01;32.30;;;12.23;;
65863;SDS011;52639;51.180;20.460;2023-11-21T03:47:05;28.67;;;11.90;;
65863;SDS011;52639;51.180;20.460;2023-11-21T03:51:08;40.40;;;15.32;;
65863;SDS011;52639;51.180;20.460;2023-11-21T03:55:10;40.47;;;16.17;;
65863;SDS011;52639;51.180;20.460;2023-11-21T03:59:14;32.55;;;14.68;;
65863;SDS011;52639;51.180;20.460;2023-11-21T04:03:18;29.15;;;12.95;;
65863;SDS011;52639;51.180;20.460;2023-11-21T04:07:21;30.98;;;13.23;;
65863;SDS011;52639;51.180;20.460;2023-11-21T04:11:26;40.30;;;15.02;;
65863;SDS011;52639;51.180;20.460;2023-11-21T04:15:30;33.03;;;14.00;;
65863;SDS011;52639;51.180;20.460;2023-11-21T04:19:35;33.90;;;12.60;;
65863;SDS011;52639;51.180;20.460;2023-11-21T04:23:37;31.40;;;12.13;;
65863;SDS011;52639;51.180;20.460;2023-11-21T04:27:40;41.08;;;12.05;;
65863;SDS011;52639;51.180;20.460;2023-11-21T04:31:44;12.25;;;5.25;;
65863;SDS011;52639;51.180;20.460;2023-11-21T04:35:51;36.20;;;10.80;;
65863;SDS011;52639;51.180;20.460;2023-11-21T04:39:54;25.75;;;9.88;;
65863;SDS011;52639;51.180;20.460;2023-11-21T04:43:56;32.33;;;11.20;;
65863;SDS011;52639;51.180;20.460;2023-11-21T04:47:59;33.88;;;11.70;;
65863;SDS011;52639;51.180;20.460;2023-11-21T04:52:04;19.02;;;7.32;;
65863;SDS011;52639;51.180;20.460;2023-11-21T04:56:07;24.52;;;9.32;;
65863;SDS011;52639;51.180;20.460;2023-11-21T05:00:10;27.48;;;10.07;;
65863;SDS011;52639;51.180;20.460;2023-11-21T05:04:14;27.60;;;10.27;;
65863;SDS011;52639;51.180;20.460;2023-11-21T05:08:18;33.30;;;11.93;;
65863;SDS011;52639;51.180;20.460;2023-11-21T05:12:24;23.45;;;10.30;;
65863;SDS011;52639;51.180;20.460;2023-11-21T05:16:27;25.25;;;9.40;;
65863;SDS011;52639;51.180;20.460;2023-11-21T05:20:30;22.73;;;10.38;;
65863;SDS011;52639;51.180;20.460;2023-11-21T05:24:35;24.80;;;10.02;;
65863;SDS011;52639;51.180;20.460;2023-11-21T05:28:39;26.20;;;10.73;;
65863;SDS011;52639;51.180;20.460;2023-11-21T05:32:42;20.67;;;8.63;;
65863;SDS011;52639;51.180;20.460;2023-11-21T05:36:47;26.80;;;9.52;;
65863;SDS011;52639;51.180;20.460;2023-11-21T05:40:51;29.33;;;10.00;;
65863;SDS011;52639;51.180;20.460;2023-11-21T05:44:55;27.73;;;9.25;;
65863;SDS011;52639;51.180;20.460;2023-11-21T05:49:00;23.83;;;9.88;;
65863;SDS011;52639;51.180;20.460;2023-11-21T05:53:03;17.73;;;9.32;;
65863;SDS011;52639;51.180;20.460;2023-11-21T05:57:07;39.55;;;10.45;;
65863;SDS011;52639;51.180;20.460;2023-11-21T06:01:10;24.90;;;9.77;;
65863;SDS011;52639;51.180;20.460;2023-11-21T06:05:14;18.92;;;8.43;;
65863;SDS011;52639;51.180;20.460;2023-11-21T06:09:17;24.27;;;9.52;;
65863;SDS011;52639;51.180;20.460;2023-11-21T06:13:21;26.10;;;8.93;;
65863;SDS011;52639;51.180;20.460;2023-11-21T06:17:25;30.70;;;12.32;;
65863;SDS011;52639;51.180;20.460;2023-11-21T06:21:29;21.00;;;9.23;;
65863;SDS011;52639;51.180;20.460;2023-11-21T06:25:33;28.73;;;9.75;;
65863;SDS011;52639;51.180;20.460;2023-11-21T06:29:38;28.27;;;11.45;;
65863;SDS011;52639;51.180;20.460;2023-11-21T06:33:43;23.15;;;9.60;;
65863;SDS011;52639;51.180;20.460;2023-11-21T06:37:46;46.42;;;21.73;;
65863;SDS011;52639;51.180;20.460;2023-11-21T06:41:49;37.53;;;14.50;;
65863;SDS011;52639;51.180;20.460;2023-11-21T06:45:53;23.50;;;9.90;;
65863;SDS011;52639;51.180;20.460;2023-11-21T06:49:56;39.65;;;15.88;;
65863;SDS011;52639;51.180;20.460;2023-11-21T06:53:59;31.00;;;12.00;;
65863;SDS011;52639;51.180;20.460;2023-11-21T06:58:02;23.83;;;10.60;;
65863;SDS011;52639;51.180;20.460;2023-11-21T07:02:07;19.30;;;10.05;;
65863;SDS011;52639;51.180;20.460;2023-11-21T07:06:10;25.95;;;11.10;;
65863;SDS011;52639;51.180;20.460;2023-11-21T07:10:13;23.13;;;10.75;;
65863;SDS011;52639;51.180;20.460;2023-11-21T07:14:16;25.60;;;11.05;;
65863;SDS011;52639;51.180;20.460;2023-11-21T07:18:22;28.02;;;11.38;;
65863;SDS011;52639;51.180;20.460;2023-11-21T07:22:25;25.95;;;10.35;;
65863;SDS011;52639;51.180;20.460;2023-11-21T07:26:28;18.88;;;9.07;;
65863;SDS011;52639;51.180;20.460;2023-11-21T07:30:31;28.10;;;11.07;;
65863;SDS011;52639;51.180;20.460;2023-11-21T07:34:35;18.92;;;8.23;;
65863;SDS011;52639;51.180;20.460;2023-11-21T07:38:38;23.02;;;9.50;;
65863;SDS011;52639;51.180;20.460;2023-11-21T07:42:41;22.13;;;10.27;;
65863;SDS011;52639;51.180;20.460;2023-11-21T07:46:44;23.27;;;10.05;;
65863;SDS011;52639;51.180;20.460;2023-11-21T07:50:49;14.00;;;7.45;;
65863;SDS011;52639;51.180;20.460;2023-11-21T07:54:52;22.77;;;9.32;;
65863;SDS011;52639;51.180;20.460;2023-11-21T07:58:55;20.75;;;8.02;;
65863;SDS011;52639;51.180;20.460;2023-11-21T08:02:58;19.75;;;9.88;;
65863;SDS011;52639;51.180;20.460;2023-11-21T08:07:03;12.07;;;6.95;;
65863;SDS011;52639;51.180;20.460;2023-11-21T08:11:06;19.13;;;9.45;;
65863;SDS011;52639;51.180;20.460;2023-11-21T08:15:10;21.65;;;7.82;;
65863;SDS011;52639;51.180;20.460;2023-11-21T08:19:14;19.08;;;10.02;;
65863;SDS011;52639;51.180;20.460;2023-11-21T08:23:18;17.13;;;8.80;;
65863;SDS011;52639;51.180;20.460;2023-11-21T08:27:21;22.38;;;9.43;;
65863;SDS011;52639;51.180;20.460;2023-11-21T08:31:25;9.35;;;4.32;;
65863;SDS011;52639;51.180;20.460;2023-11-21T08:35:28;15.02;;;7.15;;
65863;SDS011;52639;51.180;20.460;2023-11-21T08:39:32;23.65;;;9.80;;
65863;SDS011;52639;51.180;20.460;2023-11-21T08:43:35;20.83;;;10.40;;
65863;SDS011;52639;51.180;20.460;2023-11-21T08:47:40;19.50;;;9.73;;
65863;SDS011;52639;51.180;20.460;2023-11-21T08:51:45;19.98;;;9.52;;
65863;SDS011;52639;51.180;20.460;2023-11-21T08:55:52;30.10;;;12.55;;
65863;SDS011;52639;51.180;20.460;2023-11-21T08:59:55;19.55;;;9.23;;
65863;SDS011;52639;51.180;20.460;2023-11-21T09:03:58;19.73;;;9.45;;
65863;SDS011;52639;51.180;20.460;2023-11-21T09:08:01;20.25;;;9.10;;
65863;SDS011;52639;51.180;20.460;2023-11-21T09:12:06;22.95;;;11.52;;
65863;SDS011;52639;51.180;20.460;2023-11-21T09:16:13;25.15;;;10.48;;
65863;SDS011;52639;51.180;20.460;2023-11-21T09:20:17;20.63;;;9.63;;
65863;SDS011;52639;51.180;20.460;2023-11-21T09:24:23;12.50;;;5.93;;
65863;SDS011;52639;51.180;20.460;2023-11-21T09:28:28;26.42;;;11.95;;
65863;SDS011;52639;51.180;20.460;2023-11-21T09:32:31;21.75;;;9.50;;
65863;SDS011;52639;51.180;20.460;2023-11-21T09:36:36;24.77;;;11.13;;
65863;SDS011;52639;51.180;20.460;2023-11-21T09:40:40;19.95;;;8.98;;
65863;SDS011;52639;51.180;20.460;2023-11-21T09:44:45;23.25;;;11.05;;
65863;SDS011;52639;51.180;20.460;2023-11-21T09:48:54;19.15;;;8.77;;
65863;SDS011;52639;51.180;20.460;2023-11-21T09:52:58;19.73;;;8.38;;
65863;SDS011;52639;51.180;20.460;2023-11-21T09:57:12;11.98;;;6.55;;
65863;SDS011;52639;51.180;20.460;2023-11-21T10:01:18;19.38;;;8.85;;
65863;SDS011;52639;51.180;20.460;2023-11-21T10:05:21;17.00;;;8.93;;
65863;SDS011;52639;51.180;20.460;2023-11-21T10:09:25;16.10;;;8.23;;
65863;SDS011;52639;51.180;20.460;2023-11-21T10:13:29;18.70;;;8.45;;
65863;SDS011;52639;51.180;20.460;2023-11-21T10:17:35;16.35;;;6.93;;
65863;SDS011;52639;51.180;20.460;2023-11-21T10:21:44;29.45;;;14.75;;
65863;SDS011;52639;51.180;20.460;2023-11-21T10:25:47;25.17;;;12.52;;
65863;SDS011;52639;51.180;20.460;2023-11-21T10:29:51;27.45;;;12.75;;
65863;SDS011;52639;51.180;20.460;2023-11-21T10:33:57;19.02;;;8.00;;
65863;SDS011;52639;51.180;20.460;2023-11-21T10:42:18;18.40;;;9.13;;
65863;SDS011;52639;51.180;20.460;2023-11-21T10:46:22;17.23;;;8.68;;
65863;SDS011;52639;51.180;20.460;2023-11-21T10:50:28;18.02;;;8.52;;
65863;SDS011;52639;51.180;20.460;2023-11-21T10:54:31;16.60;;;8.07;;
65863;SDS011;52639;51.180;20.460;2023-11-21T10:58:36;17.60;;;9.13;;
65863;SDS011;52639;51.180;20.460;2023-11-21T11:02:41;17.45;;;8.88;;
65863;SDS011;52639;51.180;20.460;2023-11-21T11:06:50;21.08;;;9.50;;
65863;SDS011;52639;51.180;20.460;2023-11-21T11:10:57;18.83;;;9.68;;
65863;SDS011;52639;51.180;20.460;2023-11-21T11:15:00;16.45;;;7.53;;
65863;SDS011;52639;51.180;20.460;2023-11-21T11:19:06;15.38;;;7.35;;
65863;SDS011;52639;51.180;20.460;2023-11-21T11:23:13;8.75;;;5.00;;
65863;SDS011;52639;51.180;20.460;2023-11-21T11:27:34;12.03;;;6.87;;
65863;SDS011;52639;51.180;20.460;2023-11-21T11:31:48;3.38;;;2.33;;
65863;SDS011;52639;51.180;20.460;2023-11-21T11:36:00;21.10;;;9.52;;
65863;SDS011;52639;51.180;20.460;2023-11-21T11:40:10;11.15;;;6.07;;
65863;SDS011;52639;51.180;20.460;2023-11-21T11:49:02;18.65;;;9.57;;
65863;SDS011;52639;51.180;20.460;2023-11-21T11:53:12;20.38;;;10.98;;
65863;SDS011;52639;51.180;20.460;2023-11-21T11:57:17;4.15;;;2.90;;
65863;SDS011;52639;51.180;20.460;2023-11-21T12:01:20;8.02;;;4.47;;
65863;SDS011;52639;51.180;20.460;2023-11-21T12:05:25;10.60;;;4.97;;
65863;SDS011;52639;51.180;20.460;2023-11-21T12:09:33;10.02;;;4.70;;
65863;SDS011;52639;51.180;20.460;2023-11-21T12:13:38;10.57;;;4.97;;
65863;SDS011;52639;51.180;20.460;2023-11-21T12:17:42;6.65;;;4.28;;
65863;SDS011;52639;51.180;20.460;2023-11-21T12:21:45;1.60;;;1.50;;
65863;SDS011;52639;51.180;20.460;2023-11-21T12:25:49;44.72;;;17.15;;
65863;SDS011;52639;51.180;20.460;2023-11-21T12:29:54;12.45;;;6.28;;
65863;SDS011;52639;51.180;20.460;2023-11-21T12:33:58;3.78;;;3.10;;
65863;SDS011;52639;51.180;20.460;2023-11-21T12:38:01;13.02;;;5.97;;
65863;SDS011;52639;51.180;20.460;2023-11-21T12:42:04;22.42;;;10.52;;
65863;SDS011;52639;51.180;20.460;2023-11-21T12:46:10;17.08;;;8.48;;
65863;SDS011;52639;51.180;20.460;2023-11-21T12:50:14;8.77;;;5.10;;
65863;SDS011;52639;51.180;20.460;2023-11-21T12:54:17;16.75;;;7.88;;
65863;SDS011;52639;51.180;20.460;2023-11-21T12:58:21;24.95;;;11.57;;
65863;SDS011;52639;51.180;20.460;2023-11-21T13:02:28;14.50;;;5.07;;
65863;SDS011;52639;51.180;20.460;2023-11-21T13:06:36;17.15;;;8.63;;
65863;SDS011;52639;51.180;20.460;2023-11-21T13:10:49;11.73;;;6.88;;
65863;SDS011;52639;51.180;20.460;2023-11-21T13:14:56;9.52;;;5.43;;
65863;SDS011;52639;51.180;20.460;2023-11-21T13:19:01;18.08;;;9.77;;
65863;SDS011;52639;51.180;20.460;2023-11-21T13:23:07;11.25;;;7.25;;
65863;SDS011;52639;51.180;20.460;2023-11-21T13:27:12;8.95;;;5.07;;
65863;SDS011;52639;51.180;20.460;2023-11-21T13:31:16;13.90;;;7.68;;
65863;SDS011;52639;51.180;20.460;2023-11-21T13:35:29;11.43;;;6.38;;
65863;SDS011;52639;51.180;20.460;2023-11-21T13:39:33;25.15;;;13.05;;
65863;SDS011;52639;51.180;20.460;2023-11-21T13:43:36;13.75;;;7.97;;
65863;SDS011;52639;51.180;20.460;2023-11-21T13:47:39;7.57;;;4.25;;
65863;SDS011;52639;51.180;20.460;2023-11-21T13:51:44;17.63;;;9.55;;
65863;SDS011;52639;51.180;20.460;2023-11-21T13:55:48;9.23;;;5.47;;
65863;SDS011;52639;51.180;20.460;2023-11-21T13:59:52;5.05;;;3.15;;
65863;SDS011;52639;51.180;20.460;2023-11-21T14:03:54;13.38;;;5.88;;
65863;SDS011;52639;51.180;20.460;2023-11-21T14:08:05;8.20;;;5.03;;
65863;SDS011;52639;51.180;20.460;2023-11-21T14:12:08;17.05;;;8.15;;
65863;SDS011;52639;51.180;20.460;2023-11-21T14:16:14;15.82;;;6.95;;
65863;SDS011;52639;51.180;20.460;2023-11-21T14:20:17;14.73;;;6.78;;
65863;SDS011;52639;51.180;20.460;2023-11-21T14:24:23;7.35;;;4.47;;
65863;SDS011;52639;51.180;20.460;2023-11-21T14:28:26;5.72;;;3.22;;
65863;SDS011;52639;51.180;20.460;2023-11-21T14:32:30;9.75;;;5.00;;
65863;SDS011;52639;51.180;20.460;2023-11-21T14:36:33;5.72;;;3.72;;
65863;SDS011;52639;51.180;20.460;2023-11-21T14:40:39;36.45;;;14.60;;
65863;SDS011;52639;51.180;20.460;2023-11-21T14:44:42;8.45;;;5.15;;
65863;SDS011;52639;51.180;20.460;2023-11-21T14:48:45;8.77;;;4.72;;
65863;SDS011;52639;51.180;20.460;2023-11-21T14:52:59;13.52;;;8.63;;
65863;SDS011;52639;51.180;20.460;2023-11-21T14:57:08;8.20;;;4.50;;
65863;SDS011;52639;51.180;20.460;2023-11-21T15:01:12;7.68;;;4.15;;
65863;SDS011;52639;51.180;20.460;2023-11-21T15:05:15;5.85;;;4.47;;
65863;SDS011;52639;51.180;20.460;2023-11-21T15:09:19;11.07;;;5.22;;
65863;SDS011;52639;51.180;20.460;2023-11-21T15:13:41;3.37;;;2.40;;
65863;SDS011;52639;51.180;20.460;2023-11-21T15:17:44;4.05;;;2.85;;
65863;SDS011;52639;51.180;20.460;2023-11-21T15:21:48;5.07;;;3.53;;
65863;SDS011;52639;51.180;20.460;2023-11-21T15:25:51;20.52;;;10.35;;
65863;SDS011;52639;51.180;20.460;2023-11-21T15:30:03;15.73;;;7.68;;
65863;SDS011;52639;51.180;20.460;2023-11-21T15:34:07;17.90;;;7.53;;
65863;SDS011;52639;51.180;20.460;2023-11-21T15:38:10;19.77;;;7.82;;
65863;SDS011;52639;51.180;20.460;2023-11-21T15:42:14;11.70;;;5.88;;
65863;SDS011;52639;51.180;20.460;2023-11-21T15:46:18;22.33;;;13.00;;
65863;SDS011;52639;51.180;20.460;2023-11-21T15:50:21;17.75;;;8.15;;
65863;SDS011;52639;51.180;20.460;2023-11-21T15:54:26;10.50;;;5.07;;
65863;SDS011;52639;51.180;20.460;2023-11-21T15:58:30;19.00;;;8.82;;
65863;SDS011;52639;51.180;20.460;2023-11-21T16:02:36;7.95;;;5.13;;
65863;SDS011;52639;51.180;20.460;2023-11-21T16:06:39;93.65;;;34.97;;
65863;SDS011;52639;51.180;20.460;2023-11-21T16:10:42;8.60;;;4.45;;
65863;SDS011;52639;51.180;20.460;2023-11-21T16:14:45;13.30;;;6.35;;
65863;SDS011;52639;51.180;20.460;2023-11-21T16:18:52;18.20;;;7.78;;
65863;SDS011;52639;51.180;20.460;2023-11-21T16:22:56;8.15;;;4.22;;
65863;SDS011;52639;51.180;20.460;2023-11-21T16:26:59;19.70;;;9.88;;
65863;SDS011;52639;51.180;20.460;2023-11-21T16:31:03;15.07;;;8.25;;
65863;SDS011;52639;51.180;20.460;2023-11-21T16:35:09;17.88;;;7.68;;
65863;SDS011;52639;51.180;20.460;2023-11-21T16:39:13;6.88;;;4.07;;
65863;SDS011;52639;51.180;20.460;2023-11-21T16:43:16;8.95;;;4.88;;
65863;SDS011;52639;51.180;20.460;2023-11-21T16:47:19;17.75;;;7.60;;
65863;SDS011;52639;51.180;20.460;2023-11-21T16:51:28;8.05;;;4.63;;
65863;SDS011;52639;51.180;20.460;2023-11-21T16:55:31;42.78;;;17.23;;
65863;SDS011;52639;51.180;20.460;2023-11-21T16:59:35;90.07;;;31.73;;
65863;SDS011;52639;51.180;20.460;2023-11-21T17:03:38;72.70;;;27.55;;
65863;SDS011;52639;51.180;20.460;2023-11-21T17:07:43;16.17;;;7.55;;
65863;SDS011;52639;51.180;20.460;2023-11-21T17:11:46;14.55;;;7.93;;
65863;SDS011;52639;51.180;20.460;2023-11-21T17:15:49;21.00;;;7.22;;
65863;SDS011;52639;51.180;20.460;2023-11-21T17:19:52;12.85;;;7.38;;
65863;SDS011;52639;51.180;20.460;2023-11-21T17:23:57;30.75;;;14.07;;
65863;SDS011;52639;51.180;20.460;2023-11-21T17:28:02;44.65;;;20.50;;
65863;SDS011;52639;51.180;20.460;2023-11-21T17:32:06;99.90;;;38.40;;
65863;SDS011;52639;51.180;20.460;2023-11-21T17:36:10;28.90;;;13.23;;
65863;SDS011;52639;51.180;20.460;2023-11-21T17:40:17;56.40;;;21.05;;
65863;SDS011;52639;51.180;20.460;2023-11-21T17:44:20;11.77;;;6.90;;
65863;SDS011;52639;51.180;20.460;2023-11-21T17:48:24;30.92;;;13.70;;
65863;SDS011;52639;51.180;20.460;2023-11-21T17:52:31;15.98;;;8.20;;
65863;SDS011;52639;51.180;20.460;2023-11-21T17:56:36;17.15;;;9.40;;
65863;SDS011;52639;51.180;20.460;2023-11-21T18:00:39;54.95;;;22.15;;
65863;SDS011;52639;51.180;20.460;2023-11-21T18:04:42;13.43;;;8.30;;
65863;SDS011;52639;51.180;20.460;2023-11-21T18:08:46;80.50;;;26.52;;
65863;SDS011;52639;51.180;20.460;2023-11-21T18:12:52;29.15;;;11.77;;
65863;SDS011;52639;51.180;20.460;2023-11-21T18:16:55;26.95;;;11.25;;
65863;SDS011;52639;51.180;20.460;2023-11-21T18:20:58;15.60;;;9.63;;
65863;SDS011;52639;51.180;20.460;2023-11-21T18:25:01;81.97;;;23.23;;
65863;SDS011;52639;51.180;20.460;2023-11-21T18:29:06;33.42;;;16.08;;
65863;SDS011;52639;51.180;20.460;2023-11-21T18:33:11;31.17;;;14.55;;
65863;SDS011;52639;51.180;20.460;2023-11-21T18:37:14;19.58;;;8.10;;
65863;SDS011;52639;51.180;20.460;2023-11-21T18:41:20;27.98;;;11.93;;
65863;SDS011;52639;51.180;20.460;2023-11-21T18:45:25;45.08;;;17.55;;
65863;SDS011;52639;51.180;20.460;2023-11-21T18:49:29;36.17;;;17.02;;
65863;SDS011;52639;51.180;20.460;2023-11-21T18:53:32;18.75;;;7.95;;
65863;SDS011;52639;51.180;20.460;2023-11-21T18:57:36;22.35;;;10.20;;
65863;SDS011;52639;51.180;20.460;2023-11-21T19:01:40;31.27;;;13.82;;
65863;SDS011;52639;51.180;20.460;2023-11-21T19:05:46;34.75;;;13.75;;
65863;SDS011;52639;51.180;20.460;2023-11-21T19:09:49;56.08;;;20.00;;
65863;SDS011;52639;51.180;20.460;2023-11-21T19:13:54;27.98;;;12.35;;
65863;SDS011;52639;51.180;20.460;2023-11-21T19:17:58;56.65;;;20.67;;
65863;SDS011;52639;51.180;20.460;2023-11-21T19:22:02;131.40;;;29.25;;
65863;SDS011;52639;51.180;20.460;2023-11-21T19:26:06;79.43;;;25.58;;
65863;SDS011;52639;51.180;20.460;2023-11-21T19:30:10;29.65;;;11.43;;
65863;SDS011;52639;51.180;20.460;2023-11-21T19:34:15;76.85;;;25.95;;
65863;SDS011;52639;51.180;20.460;2023-11-21T19:38:21;28.45;;;13.32;;
65863;SDS011;52639;51.180;20.460;2023-11-21T19:42:28;11.80;;;6.90;;
65863;SDS011;52639;51.180;20.460;2023-11-21T19:46:31;55.95;;;18.20;;
65863;SDS011;52639;51.180;20.460;2023-11-21T19:50:38;29.80;;;12.27;;
65863;SDS011;52639;51.180;20.460;2023-11-21T19:54:41;49.35;;;20.42;;
65863;SDS011;52639;51.180;20.460;2023-11-21T19:58:46;23.42;;;13.43;;
65863;SDS011;52639;51.180;20.460;2023-11-21T20:02:51;90.18;;;31.42;;
65863;SDS011;52639;51.180;20.460;2023-11-21T20:06:56;22.33;;;10.82;;
65863;SDS011;52639;51.180;20.460;2023-11-21T20:11:00;39.97;;;18.27;;
65863;SDS011;52639;51.180;20.460;2023-11-21T20:15:07;96.32;;;31.58;;
65863;SDS011;52639;51.180;20.460;2023-11-21T20:19:11;176.90;;;47.83;;
65863;SDS011;52639;51.180;20.460;2023-11-21T20:23:17;132.75;;;39.55;;
65863;SDS011;52639;51.180;20.460;2023-11-21T20:27:21;137.35;;;60.03;;
65863;SDS011;52639;51.180;20.460;2023-11-21T20:31:25;72.68;;;23.60;;
65863;SDS011;52639;51.180;20.460;2023-11-21T20:35:28;107.70;;;31.90;;
65863;SDS011;52639;51.180;20.460;2023-11-21T20:39:35;139.30;;;36.15;;
65863;SDS011;52639;51.180;20.460;2023-11-21T20:43:38;86.93;;;33.60;;
65863;SDS011;52639;51.180;20.460;2023-11-21T20:47:41;24.85;;;11.25;;
65863;SDS011;52639;51.180;20.460;2023-11-21T20:51:46;26.70;;;11.55;;
65863;SDS011;52639;51.180;20.460;2023-11-21T20:55:51;30.85;;;11.88;;
65863;SDS011;52639;51.180;20.460;2023-11-21T20:59:54;28.48;;;13.30;;
65863;SDS011;52639;51.180;20.460;2023-11-21T21:03:59;27.17;;;12.05;;
65863;SDS011;52639;51.180;20.460;2023-11-21T21:08:03;67.07;;;24.08;;
65863;SDS011;52639;51.180;20.460;2023-11-21T21:12:09;17.95;;;9.45;;
65863;SDS011;52639;51.180;20.460;2023-11-21T21:16:13;53.72;;;19.17;;
65863;SDS011;52639;51.180;20.460;2023-11-21T21:20:16;17.85;;;9.75;;
65863;SDS011;52639;51.180;20.460;2023-11-21T21:24:19;31.30;;;10.73;;
65863;SDS011;52639;51.180;20.460;2023-11-21T21:28:26;56.97;;;17.23;;
65863;SDS011;52639;51.180;20.460;2023-11-21T21:32:29;22.40;;;11.27;;
65863;SDS011;52639;51.180;20.460;2023-11-21T21:36:32;13.90;;;7.10;;
65863;SDS011;52639;51.180;20.460;2023-11-21T21:40:35;10.63;;;6.60;;
65863;SDS011;52639;51.180;20.460;2023-11-21T21:44:40;21.75;;;10.05;;
65863;SDS011;52639;51.180;20.460;2023-11-21T21:48:43;20.75;;;9.68;;
65863;SDS011;52639;51.180;20.460;2023-11-21T21:52:46;21.02;;;9.80;;
65863;SDS011;52639;51.180;20.460;2023-11-21T21:56:48;14.68;;;6.88;;
65863;SDS011;52639;51.180;20.460;2023-11-21T22:00:54;13.70;;;6.53;;
65863;SDS011;52639;51.180;20.460;2023-11-21T22:04:57;15.38;;;7.50;;
65863;SDS011;52639;51.180;20.460;2023-11-21T22:09:00;24.38;;;10.30;;
65863;SDS011;52639;51.180;20.460;2023-11-21T22:13:04;12.55;;;7.38;;
65863;SDS011;52639;51.180;20.460;2023-11-21T22:17:08;14.60;;;6.57;;
65863;SDS011;52639;51.180;20.460;2023-11-21T22:21:12;74.30;;;21.80;;
65863;SDS011;52639;51.180;20.460;2023-11-21T22:25:16;10.68;;;5.63;;
65863;SDS011;52639;51.180;20.460;2023-11-21T22:29:18;17.88;;;8.93;;
65863;SDS011;52639;51.180;20.460;2023-11-21T22:33:23;16.80;;;8.60;;
65863;SDS011;52639;51.180;20.460;2023-11-21T22:37:26;12.82;;;6.78;;
65863;SDS011;52639;51.180;20.460;2023-11-21T22:41:29;13.07;;;6.50;;
65863;SDS011;52639;51.180;20.460;2023-11-21T22:45:32;15.38;;;7.20;;
65863;SDS011;52639;51.180;20.460;2023-11-21T22:49:36;18.33;;;8.90;;
65863;SDS011;52639;51.180;20.460;2023-11-21T22:53:40;12.75;;;5.82;;
65863;SDS011;52639;51.180;20.460;2023-11-21T22:57:43;11.00;;;6.13;;
65863;SDS011;52639;51.180;20.460;2023-11-21T23:01:46;17.58;;;8.00;;
65863;SDS011;52639;51.180;20.460;2023-11-21T23:05:52;22.02;;;8.15;;
65863;SDS011;52639;51.180;20.460;2023-11-21T23:09:55;13.23;;;7.03;;
65863;SDS011;52639;51.180;20.460;2023-11-21T23:13:58;20.35;;;10.60;;
65863;SDS011;52639;51.180;20.460;2023-11-21T23:18:01;13.15;;;6.82;;
65863;SDS011;52639;51.180;20.460;2023-11-21T23:22:11;10.77;;;6.32;;
65863;SDS011;52639;51.180;20.460;2023-11-21T23:26:14;19.05;;;10.02;;
65863;SDS011;52639;51.180;20.460;2023-11-21T23:30:18;31.70;;;13.23;;
65863;SDS011;52639;51.180;20.460;2023-11-21T23:34:21;25.05;;;11.10;;
65863;SDS011;52639;51.180;20.460;2023-11-21T23:38:26;21.10;;;9.45;;
65863;SDS011;52639;51.180;20.460;2023-11-21T23:42:28;9.93;;;4.47;;
65863;SDS011;52639;51.180;20.460;2023-11-21T23:46:32;15.35;;;7.10;;
65863;SDS011;52639;51.180;20.460;2023-11-21T23:50:36;23.42;;;11.18;;